sensor_id;sensor_type;location;lat;lon;timestamp;temperature;humidity
48264;DHT22;34086;51.076;13.722;2023-04-24T00:00:25;12.60;99.90
48264;DHT22;34086;51.076;13.722;2023-04-24T00:01:26;12.60;99.90
48264;DHT22;34086;51.076;13.722;2023-04-24T00:02:27;12.60;99.90
48264;DHT22;34086;51.076;13.722;2023-04-24T00:03:27;12.60;99.90
48264;DHT22;34086;51.076;13.722;2023-04-24T00:04:28;12.60;99.90
48264;DHT22;34086;51.076;13.722;2023-04-24T00:05:28;12.60;99.90
48264;DHT22;34086;51.076;13.722;2023-04-24T00:06:30;12.60;99.90
48264;DHT22;34086;51.076;13.722;2023-04-24T00:07:34;12.60;99.90
48264;DHT22;34086;51.076;13.722;2023-04-24T00:08:35;12.60;99.90
48264;DHT22;34086;51.076;13.722;2023-04-24T00:09:36;12.60;99.90
48264;DHT22;34086;51.076;13.722;2023-04-24T00:10:37;12.60;99.90
48264;DHT22;34086;51.076;13.722;2023-04-24T00:11:37;12.60;99.90
48264;DHT22;34086;51.076;13.722;2023-04-24T00:12:38;12.60;99.90
48264;DHT22;34086;51.076;13.722;2023-04-24T00:13:39;12.60;99.90
48264;DHT22;34086;51.076;13.722;2023-04-24T00:14:40;12.60;99.90
48264;DHT22;34086;51.076;13.722;2023-04-24T00:15:40;12.60;99.90
48264;DHT22;34086;51.076;13.722;2023-04-24T00:16:41;12.60;99.90
48264;DHT22;34086;51.076;13.722;2023-04-24T00:17:41;12.50;99.90
48264;DHT22;34086;51.076;13.722;2023-04-24T00:18:42;12.50;99.90
48264;DHT22;34086;51.076;13.722;2023-04-24T00:19:42;12.50;99.90
48264;DHT22;34086;51.076;13.722;2023-04-24T00:20:43;12.50;99.90
48264;DHT22;34086;51.076;13.722;2023-04-24T00:21:44;12.50;99.90
48264;DHT22;34086;51.076;13.722;2023-04-24T00:22:44;12.50;99.90
48264;DHT22;34086;51.076;13.722;2023-04-24T00:23:45;12.50;99.90
48264;DHT22;34086;51.076;13.722;2023-04-24T00:24:45;12.50;99.90
48264;DHT22;34086;51.076;13.722;2023-04-24T00:25:46;12.50;99.90
48264;DHT22;34086;51.076;13.722;2023-04-24T00:26:46;12.40;99.90
48264;DHT22;34086;51.076;13.722;2023-04-24T00:27:47;12.50;99.90
48264;DHT22;34086;51.076;13.722;2023-04-24T00:28:48;12.50;99.90
48264;DHT22;34086;51.076;13.722;2023-04-24T00:29:49;12.50;99.90
48264;DHT22;34086;51.076;13.722;2023-04-24T00:30:49;12.50;99.90
48264;DHT22;34086;51.076;13.722;2023-04-24T00:31:50;12.50;99.90
48264;DHT22;34086;51.076;13.722;2023-04-24T00:32:51;12.50;99.90
48264;DHT22;34086;51.076;13.722;2023-04-24T00:33:51;12.50;99.90
48264;DHT22;34086;51.076;13.722;2023-04-24T00:34:52;12.50;99.90
48264;DHT22;34086;51.076;13.722;2023-04-24T00:35:52;12.50;99.90
48264;DHT22;34086;51.076;13.722;2023-04-24T00:36:53;12.50;99.90
48264;DHT22;34086;51.076;13.722;2023-04-24T00:37:54;12.50;99.90
48264;DHT22;34086;51.076;13.722;2023-04-24T00:38:55;12.50;99.90
48264;DHT22;34086;51.076;13.722;2023-04-24T00:39:55;12.50;99.90
48264;DHT22;34086;51.076;13.722;2023-04-24T00:40:56;12.50;99.90
48264;DHT22;34086;51.076;13.722;2023-04-24T00:41:56;12.50;99.90
48264;DHT22;34086;51.076;13.722;2023-04-24T00:42:57;12.50;99.90
48264;DHT22;34086;51.076;13.722;2023-04-24T00:43:58;12.50;99.90
48264;DHT22;34086;51.076;13.722;2023-04-24T00:44:58;12.50;99.90
48264;DHT22;34086;51.076;13.722;2023-04-24T00:46:00;12.50;99.90
48264;DHT22;34086;51.076;13.722;2023-04-24T00:47:02;12.50;99.90
48264;DHT22;34086;51.076;13.722;2023-04-24T00:48:02;12.50;99.90
48264;DHT22;34086;51.076;13.722;2023-04-24T00:49:04;12.50;99.90
48264;DHT22;34086;51.076;13.722;2023-04-24T00:50:06;12.60;99.90
48264;DHT22;34086;51.076;13.722;2023-04-24T00:51:07;12.60;99.90
48264;DHT22;34086;51.076;13.722;2023-04-24T00:52:07;12.60;99.90
48264;DHT22;34086;51.076;13.722;2023-04-24T00:53:09;12.60;99.90
48264;DHT22;34086;51.076;13.722;2023-04-24T00:54:09;12.60;99.90
48264;DHT22;34086;51.076;13.722;2023-04-24T00:55:10;12.60;99.90
48264;DHT22;34086;51.076;13.722;2023-04-24T00:56:11;12.60;99.90
48264;DHT22;34086;51.076;13.722;2023-04-24T00:57:13;12.60;99.90
48264;DHT22;34086;51.076;13.722;2023-04-24T00:58:15;12.60;99.90
48264;DHT22;34086;51.076;13.722;2023-04-24T00:59:16;12.60;99.90
48264;DHT22;34086;51.076;13.722;2023-04-24T01:00:17;12.60;99.90
48264;DHT22;34086;51.076;13.722;2023-04-24T01:01:22;12.60;99.90
48264;DHT22;34086;51.076;13.722;2023-04-24T01:02:22;12.60;99.90
48264;DHT22;34086;51.076;13.722;2023-04-24T01:03:28;12.60;99.90
48264;DHT22;34086;51.076;13.722;2023-04-24T01:04:29;12.60;99.90
48264;DHT22;34086;51.076;13.722;2023-04-24T01:05:29;12.60;99.90
48264;DHT22;34086;51.076;13.722;2023-04-24T01:06:31;12.60;99.90
48264;DHT22;34086;51.076;13.722;2023-04-24T01:07:32;12.60;99.90
48264;DHT22;34086;51.076;13.722;2023-04-24T01:08:33;12.60;99.90
48264;DHT22;34086;51.076;13.722;2023-04-24T01:09:35;12.60;99.90
48264;DHT22;34086;51.076;13.722;2023-04-24T01:10:36;12.60;99.90
48264;DHT22;34086;51.076;13.722;2023-04-24T01:11:41;12.60;99.90
48264;DHT22;34086;51.076;13.722;2023-04-24T01:12:42;12.60;99.90
48264;DHT22;34086;51.076;13.722;2023-04-24T01:13:43;12.60;99.90
48264;DHT22;34086;51.076;13.722;2023-04-24T01:14:44;12.60;99.90
48264;DHT22;34086;51.076;13.722;2023-04-24T01:15:45;12.60;99.90
48264;DHT22;34086;51.076;13.722;2023-04-24T01:16:46;12.60;99.90
48264;DHT22;34086;51.076;13.722;2023-04-24T01:17:47;12.60;99.90
48264;DHT22;34086;51.076;13.722;2023-04-24T01:18:48;12.60;99.90
48264;DHT22;34086;51.076;13.722;2023-04-24T01:19:49;12.50;99.90
48264;DHT22;34086;51.076;13.722;2023-04-24T01:20:51;12.50;99.90
48264;DHT22;34086;51.076;13.722;2023-04-24T01:21:53;12.50;99.90
48264;DHT22;34086;51.076;13.722;2023-04-24T01:22:57;12.50;99.90
48264;DHT22;34086;51.076;13.722;2023-04-24T01:23:57;12.50;99.90
48264;DHT22;34086;51.076;13.722;2023-04-24T01:24:58;12.50;99.90
48264;DHT22;34086;51.076;13.722;2023-04-24T01:25:59;12.50;99.90
48264;DHT22;34086;51.076;13.722;2023-04-24T01:27:00;12.40;99.90
48264;DHT22;34086;51.076;13.722;2023-04-24T01:28:01;12.50;99.90
48264;DHT22;34086;51.076;13.722;2023-04-24T01:29:02;12.40;99.90
48264;DHT22;34086;51.076;13.722;2023-04-24T01:30:03;12.40;99.90
48264;DHT22;34086;51.076;13.722;2023-04-24T01:31:05;12.40;99.90
48264;DHT22;34086;51.076;13.722;2023-04-24T01:32:06;12.40;99.90
48264;DHT22;34086;51.076;13.722;2023-04-24T01:33:07;12.40;99.90
48264;DHT22;34086;51.076;13.722;2023-04-24T01:34:08;12.40;99.90
48264;DHT22;34086;51.076;13.722;2023-04-24T01:35:08;12.40;99.90
48264;DHT22;34086;51.076;13.722;2023-04-24T01:36:10;12.40;99.90
48264;DHT22;34086;51.076;13.722;2023-04-24T01:37:11;12.40;99.90
48264;DHT22;34086;51.076;13.722;2023-04-24T01:38:12;12.40;99.90
48264;DHT22;34086;51.076;13.722;2023-04-24T01:39:13;12.40;99.90
48264;DHT22;34086;51.076;13.722;2023-04-24T01:40:15;12.40;99.90
48264;DHT22;34086;51.076;13.722;2023-04-24T01:41:16;12.40;99.90
48264;DHT22;34086;51.076;13.722;2023-04-24T01:42:19;12.40;99.90
48264;DHT22;34086;51.076;13.722;2023-04-24T01:43:21;12.40;99.90
48264;DHT22;34086;51.076;13.722;2023-04-24T01:44:22;12.40;99.90
48264;DHT22;34086;51.076;13.722;2023-04-24T01:45:23;12.50;99.90
48264;DHT22;34086;51.076;13.722;2023-04-24T01:46:24;12.50;99.90
48264;DHT22;34086;51.076;13.722;2023-04-24T01:47:24;12.50;99.90
48264;DHT22;34086;51.076;13.722;2023-04-24T01:48:25;12.50;99.90
48264;DHT22;34086;51.076;13.722;2023-04-24T01:49:26;12.50;99.90
48264;DHT22;34086;51.076;13.722;2023-04-24T01:50:27;12.50;99.90
48264;DHT22;34086;51.076;13.722;2023-04-24T01:51:28;12.50;99.90
48264;DHT22;34086;51.076;13.722;2023-04-24T01:52:28;12.60;99.90
48264;DHT22;34086;51.076;13.722;2023-04-24T01:53:31;12.60;99.90
48264;DHT22;34086;51.076;13.722;2023-04-24T01:54:32;12.60;99.90
48264;DHT22;34086;51.076;13.722;2023-04-24T01:55:33;12.60;99.90
48264;DHT22;34086;51.076;13.722;2023-04-24T01:56:34;12.60;99.90
48264;DHT22;34086;51.076;13.722;2023-04-24T01:57:38;12.60;99.90
48264;DHT22;34086;51.076;13.722;2023-04-24T01:58:38;12.60;99.90
48264;DHT22;34086;51.076;13.722;2023-04-24T01:59:39;12.60;99.90
48264;DHT22;34086;51.076;13.722;2023-04-24T02:00:40;12.60;99.90
48264;DHT22;34086;51.076;13.722;2023-04-24T02:01:40;12.60;99.90
48264;DHT22;34086;51.076;13.722;2023-04-24T02:02:42;12.60;99.90
48264;DHT22;34086;51.076;13.722;2023-04-24T02:03:42;12.60;99.90
48264;DHT22;34086;51.076;13.722;2023-04-24T02:04:43;12.60;99.90
48264;DHT22;34086;51.076;13.722;2023-04-24T02:05:44;12.70;99.90
48264;DHT22;34086;51.076;13.722;2023-04-24T02:06:45;12.60;99.90
48264;DHT22;34086;51.076;13.722;2023-04-24T02:07:46;12.70;99.90
48264;DHT22;34086;51.076;13.722;2023-04-24T02:08:46;12.60;99.90
48264;DHT22;34086;51.076;13.722;2023-04-24T02:09:47;12.60;99.90
48264;DHT22;34086;51.076;13.722;2023-04-24T02:10:48;12.60;99.90
48264;DHT22;34086;51.076;13.722;2023-04-24T02:11:49;12.60;99.90
48264;DHT22;34086;51.076;13.722;2023-04-24T02:12:49;12.60;99.90
48264;DHT22;34086;51.076;13.722;2023-04-24T02:13:50;12.60;99.90
48264;DHT22;34086;51.076;13.722;2023-04-24T02:14:51;12.60;99.90
48264;DHT22;34086;51.076;13.722;2023-04-24T02:15:52;12.60;99.90
48264;DHT22;34086;51.076;13.722;2023-04-24T02:16:53;12.60;99.90
48264;DHT22;34086;51.076;13.722;2023-04-24T02:17:53;12.60;99.90
48264;DHT22;34086;51.076;13.722;2023-04-24T02:18:54;12.60;99.90
48264;DHT22;34086;51.076;13.722;2023-04-24T02:19:55;12.60;99.90
48264;DHT22;34086;51.076;13.722;2023-04-24T02:20:55;12.60;99.90
48264;DHT22;34086;51.076;13.722;2023-04-24T02:21:56;12.60;99.90
48264;DHT22;34086;51.076;13.722;2023-04-24T02:22:56;12.60;99.90
48264;DHT22;34086;51.076;13.722;2023-04-24T02:23:57;12.60;99.90
48264;DHT22;34086;51.076;13.722;2023-04-24T02:24:58;12.60;99.90
48264;DHT22;34086;51.076;13.722;2023-04-24T02:25:59;12.70;99.90
48264;DHT22;34086;51.076;13.722;2023-04-24T02:26:59;12.60;99.90
48264;DHT22;34086;51.076;13.722;2023-04-24T02:28:00;12.60;99.90
48264;DHT22;34086;51.076;13.722;2023-04-24T02:29:01;12.60;99.90
48264;DHT22;34086;51.076;13.722;2023-04-24T02:30:02;12.60;99.90
48264;DHT22;34086;51.076;13.722;2023-04-24T02:31:03;12.60;99.90
48264;DHT22;34086;51.076;13.722;2023-04-24T02:32:04;12.60;99.90
48264;DHT22;34086;51.076;13.722;2023-04-24T02:33:04;12.60;99.90
48264;DHT22;34086;51.076;13.722;2023-04-24T02:34:05;12.60;99.90
48264;DHT22;34086;51.076;13.722;2023-04-24T02:35:06;12.60;99.90
48264;DHT22;34086;51.076;13.722;2023-04-24T02:36:07;12.60;99.90
48264;DHT22;34086;51.076;13.722;2023-04-24T02:37:07;12.60;99.90
48264;DHT22;34086;51.076;13.722;2023-04-24T02:38:08;12.60;99.90
48264;DHT22;34086;51.076;13.722;2023-04-24T02:39:10;12.60;99.90
48264;DHT22;34086;51.076;13.722;2023-04-24T02:40:11;12.60;99.90
48264;DHT22;34086;51.076;13.722;2023-04-24T02:41:11;12.60;99.90
48264;DHT22;34086;51.076;13.722;2023-04-24T02:42:12;12.60;99.90
48264;DHT22;34086;51.076;13.722;2023-04-24T02:43:12;12.60;99.90
48264;DHT22;34086;51.076;13.722;2023-04-24T02:44:13;12.60;99.90
48264;DHT22;34086;51.076;13.722;2023-04-24T02:45:14;12.60;99.90
48264;DHT22;34086;51.076;13.722;2023-04-24T02:46:14;12.60;99.90
48264;DHT22;34086;51.076;13.722;2023-04-24T02:47:15;12.60;99.90
48264;DHT22;34086;51.076;13.722;2023-04-24T02:48:16;12.60;99.90
48264;DHT22;34086;51.076;13.722;2023-04-24T02:49:17;12.60;99.90
48264;DHT22;34086;51.076;13.722;2023-04-24T02:50:17;12.60;99.90
48264;DHT22;34086;51.076;13.722;2023-04-24T02:51:18;12.60;99.90
48264;DHT22;34086;51.076;13.722;2023-04-24T02:52:19;12.50;99.90
48264;DHT22;34086;51.076;13.722;2023-04-24T02:53:19;12.60;99.90
48264;DHT22;34086;51.076;13.722;2023-04-24T02:54:20;12.50;99.90
48264;DHT22;34086;51.076;13.722;2023-04-24T02:55:20;12.50;99.90
48264;DHT22;34086;51.076;13.722;2023-04-24T02:56:21;12.50;99.90
48264;DHT22;34086;51.076;13.722;2023-04-24T02:57:22;12.50;99.90
48264;DHT22;34086;51.076;13.722;2023-04-24T02:58:22;12.50;99.90
48264;DHT22;34086;51.076;13.722;2023-04-24T02:59:23;12.50;99.90
48264;DHT22;34086;51.076;13.722;2023-04-24T03:00:24;12.40;99.90
48264;DHT22;34086;51.076;13.722;2023-04-24T03:01:24;12.40;99.90
48264;DHT22;34086;51.076;13.722;2023-04-24T03:02:25;12.40;99.90
48264;DHT22;34086;51.076;13.722;2023-04-24T03:03:26;12.40;99.90
48264;DHT22;34086;51.076;13.722;2023-04-24T03:04:26;12.40;99.90
48264;DHT22;34086;51.076;13.722;2023-04-24T03:05:27;12.40;99.90
48264;DHT22;34086;51.076;13.722;2023-04-24T03:06:27;12.40;99.90
48264;DHT22;34086;51.076;13.722;2023-04-24T03:07:28;12.40;99.90
48264;DHT22;34086;51.076;13.722;2023-04-24T03:08:29;12.40;99.90
48264;DHT22;34086;51.076;13.722;2023-04-24T03:09:29;12.40;99.90
48264;DHT22;34086;51.076;13.722;2023-04-24T03:10:30;12.40;99.90
48264;DHT22;34086;51.076;13.722;2023-04-24T03:11:30;12.40;99.90
48264;DHT22;34086;51.076;13.722;2023-04-24T03:12:31;12.40;99.90
48264;DHT22;34086;51.076;13.722;2023-04-24T03:13:32;12.40;99.90
48264;DHT22;34086;51.076;13.722;2023-04-24T03:14:32;12.40;99.90
48264;DHT22;34086;51.076;13.722;2023-04-24T03:15:33;12.40;99.90
48264;DHT22;34086;51.076;13.722;2023-04-24T03:16:34;12.30;99.90
48264;DHT22;34086;51.076;13.722;2023-04-24T03:17:34;12.40;99.90
48264;DHT22;34086;51.076;13.722;2023-04-24T03:18:35;12.40;99.90
48264;DHT22;34086;51.076;13.722;2023-04-24T03:19:38;12.40;99.90
48264;DHT22;34086;51.076;13.722;2023-04-24T03:20:45;12.40;99.90
48264;DHT22;34086;51.076;13.722;2023-04-24T03:21:48;12.40;99.90
48264;DHT22;34086;51.076;13.722;2023-04-24T03:22:49;12.40;99.90
48264;DHT22;34086;51.076;13.722;2023-04-24T03:23:50;12.40;99.90
48264;DHT22;34086;51.076;13.722;2023-04-24T03:24:51;12.40;99.90
48264;DHT22;34086;51.076;13.722;2023-04-24T03:25:52;12.40;99.90
48264;DHT22;34086;51.076;13.722;2023-04-24T03:26:54;12.40;99.90
48264;DHT22;34086;51.076;13.722;2023-04-24T03:28:21;12.50;99.90
48264;DHT22;34086;51.076;13.722;2023-04-24T03:29:28;12.50;99.90
48264;DHT22;34086;51.076;13.722;2023-04-24T03:30:29;12.50;99.90
48264;DHT22;34086;51.076;13.722;2023-04-24T03:31:33;12.50;99.90
48264;DHT22;34086;51.076;13.722;2023-04-24T03:32:34;12.50;99.90
48264;DHT22;34086;51.076;13.722;2023-04-24T03:33:35;12.50;99.90
48264;DHT22;34086;51.076;13.722;2023-04-24T03:34:36;12.50;99.90
48264;DHT22;34086;51.076;13.722;2023-04-24T03:35:37;12.50;99.90
48264;DHT22;34086;51.076;13.722;2023-04-24T03:36:42;12.50;99.90
48264;DHT22;34086;51.076;13.722;2023-04-24T03:37:43;12.50;99.90
48264;DHT22;34086;51.076;13.722;2023-04-24T03:39:02;12.40;99.90
48264;DHT22;34086;51.076;13.722;2023-04-24T03:40:07;12.40;99.90
48264;DHT22;34086;51.076;13.722;2023-04-24T03:41:10;12.40;99.90
48264;DHT22;34086;51.076;13.722;2023-04-24T03:42:18;12.40;99.90
48264;DHT22;34086;51.076;13.722;2023-04-24T03:43:25;12.40;99.90
48264;DHT22;34086;51.076;13.722;2023-04-24T03:44:30;12.40;99.90
48264;DHT22;34086;51.076;13.722;2023-04-24T03:45:31;12.40;99.90
48264;DHT22;34086;51.076;13.722;2023-04-24T03:46:31;12.40;99.90
48264;DHT22;34086;51.076;13.722;2023-04-24T03:47:34;12.40;99.90
48264;DHT22;34086;51.076;13.722;2023-04-24T03:48:38;12.40;99.90
48264;DHT22;34086;51.076;13.722;2023-04-24T03:49:40;12.40;99.90
48264;DHT22;34086;51.076;13.722;2023-04-24T03:50:40;12.40;99.90
48264;DHT22;34086;51.076;13.722;2023-04-24T03:51:44;12.40;99.90
48264;DHT22;34086;51.076;13.722;2023-04-24T03:52:54;12.50;99.90
48264;DHT22;34086;51.076;13.722;2023-04-24T03:54:07;12.50;99.90
48264;DHT22;34086;51.076;13.722;2023-04-24T03:55:11;12.50;99.90
48264;DHT22;34086;51.076;13.722;2023-04-24T03:56:17;12.50;99.90
48264;DHT22;34086;51.076;13.722;2023-04-24T03:57:17;12.50;99.90
48264;DHT22;34086;51.076;13.722;2023-04-24T03:58:29;12.50;99.90
48264;DHT22;34086;51.076;13.722;2023-04-24T03:59:30;12.50;99.90
48264;DHT22;34086;51.076;13.722;2023-04-24T04:00:56;12.50;99.90
48264;DHT22;34086;51.076;13.722;2023-04-24T04:02:19;12.60;99.90
48264;DHT22;34086;51.076;13.722;2023-04-24T04:03:21;12.60;99.90
48264;DHT22;34086;51.076;13.722;2023-04-24T04:04:21;12.60;99.90
48264;DHT22;34086;51.076;13.722;2023-04-24T04:05:22;12.60;99.90
48264;DHT22;34086;51.076;13.722;2023-04-24T04:06:22;12.70;99.90
48264;DHT22;34086;51.076;13.722;2023-04-24T04:07:25;12.70;99.90
48264;DHT22;34086;51.076;13.722;2023-04-24T04:08:26;12.70;99.90
48264;DHT22;34086;51.076;13.722;2023-04-24T04:09:27;12.80;99.90
48264;DHT22;34086;51.076;13.722;2023-04-24T04:10:27;12.80;99.90
48264;DHT22;34086;51.076;13.722;2023-04-24T04:11:28;12.80;99.90
48264;DHT22;34086;51.076;13.722;2023-04-24T04:12:29;12.80;99.90
48264;DHT22;34086;51.076;13.722;2023-04-24T04:13:30;12.90;99.90
48264;DHT22;34086;51.076;13.722;2023-04-24T04:14:31;12.90;99.90
48264;DHT22;34086;51.076;13.722;2023-04-24T04:15:32;12.90;99.90
48264;DHT22;34086;51.076;13.722;2023-04-24T04:16:32;12.90;99.90
48264;DHT22;34086;51.076;13.722;2023-04-24T04:17:36;12.90;99.90
48264;DHT22;34086;51.076;13.722;2023-04-24T04:18:40;12.90;99.90
48264;DHT22;34086;51.076;13.722;2023-04-24T04:19:41;12.90;99.90
48264;DHT22;34086;51.076;13.722;2023-04-24T04:20:42;13.00;99.90
48264;DHT22;34086;51.076;13.722;2023-04-24T04:21:44;13.00;99.90
48264;DHT22;34086;51.076;13.722;2023-04-24T04:23:18;13.00;99.90
48264;DHT22;34086;51.076;13.722;2023-04-24T04:24:41;13.00;99.90
48264;DHT22;34086;51.076;13.722;2023-04-24T04:25:44;13.00;99.90
48264;DHT22;34086;51.076;13.722;2023-04-24T04:26:45;13.00;99.90
48264;DHT22;34086;51.076;13.722;2023-04-24T04:27:51;13.00;99.90
48264;DHT22;34086;51.076;13.722;2023-04-24T04:28:52;13.00;99.90
48264;DHT22;34086;51.076;13.722;2023-04-24T04:29:54;13.00;99.90
48264;DHT22;34086;51.076;13.722;2023-04-24T04:30:57;13.00;99.90
48264;DHT22;34086;51.076;13.722;2023-04-24T04:31:58;13.00;99.90
48264;DHT22;34086;51.076;13.722;2023-04-24T04:32:59;13.00;99.90
48264;DHT22;34086;51.076;13.722;2023-04-24T04:34:00;13.00;99.90
48264;DHT22;34086;51.076;13.722;2023-04-24T04:35:02;13.00;99.90
48264;DHT22;34086;51.076;13.722;2023-04-24T04:36:05;13.00;99.90
48264;DHT22;34086;51.076;13.722;2023-04-24T04:37:06;13.00;99.90
48264;DHT22;34086;51.076;13.722;2023-04-24T04:38:43;13.00;99.90
48264;DHT22;34086;51.076;13.722;2023-04-24T04:40:02;13.00;99.90
48264;DHT22;34086;51.076;13.722;2023-04-24T04:41:11;13.00;99.90
48264;DHT22;34086;51.076;13.722;2023-04-24T04:42:12;13.00;99.90
48264;DHT22;34086;51.076;13.722;2023-04-24T04:43:15;13.00;99.90
48264;DHT22;34086;51.076;13.722;2023-04-24T04:44:22;13.00;99.90
48264;DHT22;34086;51.076;13.722;2023-04-24T04:45:25;12.90;99.90
48264;DHT22;34086;51.076;13.722;2023-04-24T04:46:46;12.90;99.90
48264;DHT22;34086;51.076;13.722;2023-04-24T04:48:02;12.90;99.90
48264;DHT22;34086;51.076;13.722;2023-04-24T04:49:04;12.90;99.90
48264;DHT22;34086;51.076;13.722;2023-04-24T04:50:05;12.90;99.90
48264;DHT22;34086;51.076;13.722;2023-04-24T04:51:07;12.90;99.90
48264;DHT22;34086;51.076;13.722;2023-04-24T04:52:07;13.00;99.90
48264;DHT22;34086;51.076;13.722;2023-04-24T04:53:08;13.00;99.90
48264;DHT22;34086;51.076;13.722;2023-04-24T04:54:12;13.00;99.90
48264;DHT22;34086;51.076;13.722;2023-04-24T04:55:12;13.00;99.90
48264;DHT22;34086;51.076;13.722;2023-04-24T04:56:40;13.10;99.90
48264;DHT22;34086;51.076;13.722;2023-04-24T04:57:41;13.10;99.90
48264;DHT22;34086;51.076;13.722;2023-04-24T04:58:42;13.20;99.90
48264;DHT22;34086;51.076;13.722;2023-04-24T04:59:46;13.20;99.90
48264;DHT22;34086;51.076;13.722;2023-04-24T05:00:55;13.30;99.90
48264;DHT22;34086;51.076;13.722;2023-04-24T05:02:03;13.30;99.90
48264;DHT22;34086;51.076;13.722;2023-04-24T05:03:04;13.40;99.90
48264;DHT22;34086;51.076;13.722;2023-04-24T05:04:05;13.40;99.90
48264;DHT22;34086;51.076;13.722;2023-04-24T05:05:06;13.40;99.90
48264;DHT22;34086;51.076;13.722;2023-04-24T05:06:07;13.50;99.90
48264;DHT22;34086;51.076;13.722;2023-04-24T05:07:11;13.50;99.90
48264;DHT22;34086;51.076;13.722;2023-04-24T05:08:14;13.50;99.90
48264;DHT22;34086;51.076;13.722;2023-04-24T05:09:16;13.60;99.90
48264;DHT22;34086;51.076;13.722;2023-04-24T05:10:25;13.60;99.90
48264;DHT22;34086;51.076;13.722;2023-04-24T05:11:28;13.60;99.90
48264;DHT22;34086;51.076;13.722;2023-04-24T05:12:30;13.70;99.90
48264;DHT22;34086;51.076;13.722;2023-04-24T05:13:32;13.70;99.90
48264;DHT22;34086;51.076;13.722;2023-04-24T05:14:33;13.70;99.90
48264;DHT22;34086;51.076;13.722;2023-04-24T05:15:34;13.70;99.90
48264;DHT22;34086;51.076;13.722;2023-04-24T05:16:35;13.80;99.90
48264;DHT22;34086;51.076;13.722;2023-04-24T05:17:38;13.80;99.90
48264;DHT22;34086;51.076;13.722;2023-04-24T05:18:41;13.80;99.90
48264;DHT22;34086;51.076;13.722;2023-04-24T05:19:44;13.90;99.90
48264;DHT22;34086;51.076;13.722;2023-04-24T05:20:45;13.90;99.90
48264;DHT22;34086;51.076;13.722;2023-04-24T05:21:45;14.00;99.90
48264;DHT22;34086;51.076;13.722;2023-04-24T05:22:46;14.00;99.90
48264;DHT22;34086;51.076;13.722;2023-04-24T05:23:48;14.10;99.90
48264;DHT22;34086;51.076;13.722;2023-04-24T05:24:55;14.10;99.90
48264;DHT22;34086;51.076;13.722;2023-04-24T05:26:09;14.20;99.90
48264;DHT22;34086;51.076;13.722;2023-04-24T05:27:10;14.30;99.90
48264;DHT22;34086;51.076;13.722;2023-04-24T05:28:14;14.40;99.90
48264;DHT22;34086;51.076;13.722;2023-04-24T05:29:16;14.40;99.90
48264;DHT22;34086;51.076;13.722;2023-04-24T05:30:17;14.50;99.90
48264;DHT22;34086;51.076;13.722;2023-04-24T05:31:17;14.50;99.90
48264;DHT22;34086;51.076;13.722;2023-04-24T05:32:18;14.50;99.90
48264;DHT22;34086;51.076;13.722;2023-04-24T05:33:19;14.50;99.90
48264;DHT22;34086;51.076;13.722;2023-04-24T05:34:19;14.50;99.90
48264;DHT22;34086;51.076;13.722;2023-04-24T05:35:24;14.50;99.90
48264;DHT22;34086;51.076;13.722;2023-04-24T05:36:25;14.50;99.90
48264;DHT22;34086;51.076;13.722;2023-04-24T05:37:25;14.50;99.90
48264;DHT22;34086;51.076;13.722;2023-04-24T05:38:26;14.50;99.90
48264;DHT22;34086;51.076;13.722;2023-04-24T05:39:26;14.50;99.90
48264;DHT22;34086;51.076;13.722;2023-04-24T05:40:28;14.40;99.90
48264;DHT22;34086;51.076;13.722;2023-04-24T05:41:28;14.40;99.90
48264;DHT22;34086;51.076;13.722;2023-04-24T05:42:29;14.40;99.90
48264;DHT22;34086;51.076;13.722;2023-04-24T05:43:31;14.40;99.90
48264;DHT22;34086;51.076;13.722;2023-04-24T05:44:32;14.50;99.90
48264;DHT22;34086;51.076;13.722;2023-04-24T05:45:33;14.50;99.90
48264;DHT22;34086;51.076;13.722;2023-04-24T05:46:36;14.50;99.90
48264;DHT22;34086;51.076;13.722;2023-04-24T05:47:36;14.50;99.90
48264;DHT22;34086;51.076;13.722;2023-04-24T05:48:37;14.60;99.90
48264;DHT22;34086;51.076;13.722;2023-04-24T05:49:38;14.60;99.90
48264;DHT22;34086;51.076;13.722;2023-04-24T05:50:39;14.60;99.90
48264;DHT22;34086;51.076;13.722;2023-04-24T05:51:40;14.60;99.90
48264;DHT22;34086;51.076;13.722;2023-04-24T05:52:41;14.60;99.90
48264;DHT22;34086;51.076;13.722;2023-04-24T05:53:55;14.70;99.90
48264;DHT22;34086;51.076;13.722;2023-04-24T05:54:55;14.70;99.90
48264;DHT22;34086;51.076;13.722;2023-04-24T05:55:59;14.70;99.90
48264;DHT22;34086;51.076;13.722;2023-04-24T05:57:00;14.70;99.90
48264;DHT22;34086;51.076;13.722;2023-04-24T05:58:17;14.80;99.90
48264;DHT22;34086;51.076;13.722;2023-04-24T05:59:21;14.80;99.90
48264;DHT22;34086;51.076;13.722;2023-04-24T06:00:23;14.80;99.90
48264;DHT22;34086;51.076;13.722;2023-04-24T06:01:33;14.80;99.90
48264;DHT22;34086;51.076;13.722;2023-04-24T06:02:42;14.80;99.90
48264;DHT22;34086;51.076;13.722;2023-04-24T06:03:45;14.90;99.90
48264;DHT22;34086;51.076;13.722;2023-04-24T06:04:46;14.90;99.90
48264;DHT22;34086;51.076;13.722;2023-04-24T06:05:46;14.90;99.90
48264;DHT22;34086;51.076;13.722;2023-04-24T06:06:47;14.90;99.90
48264;DHT22;34086;51.076;13.722;2023-04-24T06:07:51;15.00;99.90
48264;DHT22;34086;51.076;13.722;2023-04-24T06:08:52;15.00;99.90
48264;DHT22;34086;51.076;13.722;2023-04-24T06:09:53;14.90;99.90
48264;DHT22;34086;51.076;13.722;2023-04-24T06:10:53;15.00;99.90
48264;DHT22;34086;51.076;13.722;2023-04-24T06:11:55;15.00;99.90
48264;DHT22;34086;51.076;13.722;2023-04-24T06:13:01;15.00;99.90
48264;DHT22;34086;51.076;13.722;2023-04-24T06:14:03;15.10;99.90
48264;DHT22;34086;51.076;13.722;2023-04-24T06:15:23;15.10;99.90
48264;DHT22;34086;51.076;13.722;2023-04-24T06:16:31;15.10;99.90
48264;DHT22;34086;51.076;13.722;2023-04-24T06:17:37;15.20;99.90
48264;DHT22;34086;51.076;13.722;2023-04-24T06:18:38;15.20;99.90
48264;DHT22;34086;51.076;13.722;2023-04-24T06:19:39;15.30;99.90
48264;DHT22;34086;51.076;13.722;2023-04-24T06:20:40;15.30;99.90
48264;DHT22;34086;51.076;13.722;2023-04-24T06:21:43;15.40;99.90
48264;DHT22;34086;51.076;13.722;2023-04-24T06:22:44;15.40;99.90
48264;DHT22;34086;51.076;13.722;2023-04-24T06:23:45;15.40;99.90
48264;DHT22;34086;51.076;13.722;2023-04-24T06:24:46;15.40;99.90
48264;DHT22;34086;51.076;13.722;2023-04-24T06:25:48;15.50;99.90
48264;DHT22;34086;51.076;13.722;2023-04-24T06:26:49;15.60;99.90
48264;DHT22;34086;51.076;13.722;2023-04-24T06:27:50;15.60;99.90